createdAt,value
2022-08-28T00:00:57.738Z,487.0000
2022-08-28T00:01:59.920Z,487.0000
2022-08-28T00:03:02.178Z,487.0000
2022-08-28T00:04:04.319Z,487.0000
2022-08-28T00:05:06.639Z,483.0000
2022-08-28T00:06:08.733Z,482.0000
2022-08-28T00:07:10.944Z,481.0000
2022-08-28T00:08:13.395Z,481.0000
2022-08-28T00:09:15.358Z,473.0000
2022-08-28T00:10:17.585Z,475.0000
2022-08-28T00:11:19.753Z,475.0000
2022-08-28T00:12:21.946Z,477.0000
2022-08-28T00:13:24.144Z,474.0000
2022-08-28T00:14:26.359Z,472.0000
2022-08-28T00:15:28.592Z,476.0000
2022-08-28T00:16:28.638Z,474.0000
2022-08-28T00:17:30.811Z,476.0000
2022-08-28T00:18:33.060Z,477.0000
2022-08-28T00:19:38.479Z,473.0000
2022-08-28T00:20:37.613Z,472.0000
2022-08-28T00:21:39.827Z,471.0000
2022-08-28T00:22:42.087Z,469.0000
2022-08-28T00:23:44.371Z,468.0000
2022-08-28T00:24:46.620Z,469.0000
2022-08-28T00:25:48.902Z,467.0000
2022-08-28T00:26:51.107Z,472.0000
2022-08-28T00:27:51.187Z,469.0000
2022-08-28T00:28:53.483Z,469.0000
2022-08-28T00:29:55.744Z,464.0000
2022-08-28T00:30:58.065Z,463.0000
2022-08-28T00:32:00.189Z,466.0000
2022-08-28T00:33:02.461Z,464.0000
2022-08-28T00:34:04.722Z,462.0000
2022-08-28T00:35:06.951Z,460.0000
2022-08-28T00:36:07.088Z,460.0000
2022-08-28T00:37:09.331Z,465.0000
2022-08-28T00:38:11.871Z,462.0000
2022-08-28T00:39:13.767Z,462.0000
2022-08-28T00:40:16.045Z,466.0000
2022-08-28T00:41:18.302Z,468.0000
2022-08-28T00:42:20.541Z,470.0000
2022-08-28T00:43:22.805Z,471.0000
2022-08-28T00:44:25.072Z,473.0000
2022-08-28T00:45:27.352Z,473.0000
2022-08-28T00:46:27.771Z,474.0000
2022-08-28T00:47:29.690Z,479.0000
2022-08-28T00:48:31.871Z,478.0000
2022-08-28T00:49:34.115Z,478.0000
2022-08-28T00:50:36.386Z,477.0000
2022-08-28T00:51:38.674Z,477.0000
2022-08-28T00:52:40.881Z,482.0000
2022-08-28T00:53:43.129Z,481.0000
2022-08-28T00:54:58.694Z,480.0000
2022-08-28T00:55:47.683Z,482.0000
2022-08-28T00:56:47.805Z,481.0000
2022-08-28T00:57:50.013Z,483.0000
2022-08-28T00:58:52.225Z,482.0000
2022-08-28T00:59:54.427Z,482.0000
2022-08-28T01:00:56.637Z,480.0000
2022-08-28T01:01:58.857Z,485.0000
2022-08-28T01:03:01.082Z,484.0000
2022-08-28T01:04:03.191Z,484.0000
2022-08-28T01:05:05.370Z,481.0000
2022-08-28T01:06:07.546Z,483.0000
2022-08-28T01:07:09.741Z,479.0000
2022-08-28T01:08:12.095Z,474.0000
2022-08-28T01:09:14.081Z,475.0000
2022-08-28T01:10:16.280Z,470.0000
2022-08-28T01:11:18.501Z,469.0000
2022-08-28T01:12:20.762Z,470.0000
2022-08-28T01:13:20.831Z,471.0000
2022-08-28T01:14:23.125Z,469.0000
2022-08-28T01:15:25.404Z,473.0000
2022-08-28T01:16:31.653Z,472.0000
2022-08-28T01:17:29.999Z,468.0000
2022-08-28T01:18:32.273Z,473.0000
2022-08-28T01:19:34.572Z,473.0000
2022-08-28T01:20:36.855Z,472.0000
2022-08-28T01:21:36.938Z,473.0000
2022-08-28T01:22:39.176Z,473.0000
2022-08-28T01:23:41.375Z,470.0000
2022-08-28T01:24:43.677Z,471.0000
2022-08-28T01:25:45.967Z,472.0000
2022-08-28T01:26:48.270Z,474.0000
2022-08-28T01:27:50.607Z,472.0000
2022-08-28T01:28:52.875Z,473.0000
2022-08-28T01:29:53.020Z,473.0000
2022-08-28T01:30:55.462Z,475.0000
2022-08-28T01:31:01.788Z,475.0000
2022-08-28T01:33:02.049Z,480.0000
2022-08-28T01:34:04.256Z,474.0000
2022-08-28T01:35:04.352Z,474.0000
2022-08-28T01:36:06.592Z,474.0000
2022-08-28T01:37:08.818Z,475.0000
2022-08-28T01:38:11.238Z,477.0000
2022-08-28T01:39:13.247Z,476.0000
2022-08-28T01:40:15.567Z,473.0000
2022-08-28T01:41:17.748Z,477.0000
2022-08-28T01:42:19.956Z,477.0000
2022-08-28T01:43:22.226Z,477.0000
2022-08-28T01:44:24.399Z,475.0000
2022-08-28T01:45:26.639Z,478.0000
2022-08-28T01:46:28.928Z,476.0000
2022-08-28T01:47:28.948Z,474.0000
2022-08-28T01:48:31.233Z,474.0000
2022-08-28T01:49:33.402Z,475.0000
2022-08-28T01:50:35.638Z,476.0000
2022-08-28T01:51:38.259Z,473.0000
2022-08-28T01:52:40.124Z,475.0000
2022-08-28T01:53:45.129Z,471.0000
2022-08-28T01:54:46.760Z,476.0000
2022-08-28T01:55:46.856Z,470.0000
2022-08-28T01:56:47.980Z,473.0000
2022-08-28T01:57:27.775Z,475.0000
2022-08-28T01:58:30.113Z,469.0000
2022-08-28T01:59:32.210Z,469.0000
2022-08-28T02:00:34.413Z,470.0000
2022-08-28T02:01:34.567Z,467.0000
2022-08-28T02:02:36.771Z,469.0000
2022-08-28T02:03:39.011Z,472.0000
2022-08-28T02:04:42.719Z,472.0000
2022-08-28T02:05:43.502Z,470.0000
2022-08-28T02:06:45.755Z,470.0000
2022-08-28T02:07:48.021Z,472.0000
2022-08-28T02:08:50.281Z,473.0000
2022-08-28T02:09:52.584Z,478.0000
2022-08-28T02:10:54.812Z,473.0000
2022-08-28T02:11:54.901Z,472.0000
2022-08-28T02:12:59.235Z,474.0000
2022-08-28T02:13:59.359Z,474.0000
2022-08-28T02:15:01.603Z,470.0000
2022-08-28T02:16:03.871Z,471.0000
2022-08-28T02:17:06.019Z,471.0000
2022-08-28T02:18:08.332Z,474.0000
2022-08-28T02:19:10.472Z,472.0000
2022-08-28T02:20:12.736Z,473.0000
2022-08-28T02:21:14.917Z,474.0000
2022-08-28T02:22:17.150Z,478.0000
2022-08-28T02:23:19.378Z,472.0000
2022-08-28T02:24:19.464Z,472.0000
2022-08-28T02:25:21.690Z,474.0000
2022-08-28T02:26:23.899Z,472.0000
2022-08-28T02:27:26.116Z,474.0000
2022-08-28T02:28:28.350Z,472.0000
2022-08-28T02:29:30.624Z,471.0000
2022-08-28T02:30:32.850Z,476.0000
2022-08-28T02:31:34.989Z,471.0000
2022-08-28T02:32:37.180Z,468.0000
2022-08-28T02:33:39.417Z,466.0000
2022-08-28T02:34:41.655Z,470.0000
2022-08-28T02:35:43.931Z,472.0000
2022-08-28T02:36:44.010Z,473.0000
2022-08-28T02:37:47.648Z,475.0000
2022-08-28T02:38:48.508Z,471.0000
2022-08-28T02:39:50.753Z,474.0000
2022-08-28T02:40:53.032Z,476.0000
2022-08-28T02:41:55.250Z,479.0000
2022-08-28T02:42:57.478Z,477.0000
2022-08-28T02:43:59.724Z,477.0000
2022-08-28T02:45:01.975Z,475.0000
2022-08-28T02:46:04.317Z,478.0000
2022-08-28T02:47:04.321Z,479.0000
2022-08-28T02:48:15.948Z,479.0000
2022-08-28T02:49:08.807Z,479.0000
2022-08-28T02:50:11.017Z,482.0000
2022-08-28T02:51:13.301Z,479.0000
2022-08-28T02:52:15.509Z,480.0000
2022-08-28T02:53:17.758Z,482.0000
2022-08-28T02:54:20.007Z,481.0000
2022-08-28T02:55:22.266Z,480.0000
2022-08-28T02:56:24.527Z,478.0000
2022-08-28T02:57:24.630Z,472.0000
2022-08-28T02:58:26.937Z,475.0000
2022-08-28T02:59:29.235Z,480.0000
2022-08-28T03:00:31.555Z,474.0000
2022-08-28T03:01:33.957Z,479.0000
2022-08-28T03:02:36.228Z,482.0000
2022-08-28T03:03:36.308Z,482.0000
2022-08-28T03:04:38.614Z,481.0000
2022-08-28T03:05:40.920Z,483.0000
2022-08-28T03:06:43.249Z,481.0000
2022-08-28T03:07:45.497Z,477.0000
2022-08-28T03:08:47.748Z,477.0000
2022-08-28T03:09:50.012Z,480.0000
2022-08-28T03:10:50.160Z,481.0000
2022-08-28T03:11:52.492Z,479.0000
2022-08-28T03:12:54.763Z,479.0000
2022-08-28T03:13:57.053Z,480.0000
2022-08-28T03:14:59.350Z,474.0000
2022-08-28T03:16:01.616Z,476.0000
2022-08-28T03:17:04.035Z,476.0000
2022-08-28T03:18:08.151Z,481.0000
2022-08-28T03:19:06.396Z,477.0000
2022-08-28T03:20:08.667Z,477.0000
2022-08-28T03:21:10.934Z,479.0000
2022-08-28T03:22:13.211Z,479.0000
2022-08-28T03:23:15.440Z,478.0000
2022-08-28T03:24:17.653Z,479.0000
2022-08-28T03:25:19.858Z,478.0000
2022-08-28T03:26:22.077Z,479.0000
2022-08-28T03:27:22.223Z,478.0000
2022-08-28T03:28:24.410Z,477.0000
2022-08-28T03:29:26.636Z,481.0000
2022-08-28T03:30:28.901Z,483.0000
2022-08-28T03:31:31.134Z,484.0000
2022-08-28T03:32:33.407Z,484.0000
2022-08-28T03:33:35.626Z,479.0000
2022-08-28T03:34:37.918Z,480.0000
2022-08-28T03:35:40.167Z,484.0000
2022-08-28T03:36:40.283Z,481.0000
2022-08-28T03:37:42.562Z,485.0000
2022-08-28T03:38:44.807Z,485.0000
2022-08-28T03:39:47.074Z,486.0000
2022-08-28T03:40:49.322Z,486.0000
2022-08-28T03:41:51.610Z,486.0000
2022-08-28T03:42:53.927Z,484.0000
2022-08-28T03:43:56.130Z,485.0000
2022-08-28T03:44:56.234Z,485.0000
2022-08-28T03:45:58.613Z,487.0000
2022-08-28T03:47:00.837Z,490.0000
2022-08-28T03:48:03.417Z,491.0000
2022-08-28T03:49:05.427Z,486.0000
2022-08-28T03:50:07.736Z,490.0000
2022-08-28T03:51:10.032Z,488.0000
2022-08-28T03:52:10.191Z,487.0000
2022-08-28T03:53:12.514Z,488.0000
2022-08-28T03:54:14.766Z,486.0000
2022-08-28T03:55:17.029Z,486.0000
2022-08-28T03:56:19.337Z,485.0000
2022-08-28T03:57:21.632Z,483.0000
2022-08-28T03:58:23.964Z,484.0000
2022-08-28T03:59:26.118Z,484.0000
2022-08-28T04:00:26.397Z,480.0000
2022-08-28T04:01:28.813Z,479.0000
2022-08-28T04:02:31.017Z,479.0000
2022-08-28T04:03:33.422Z,479.0000
2022-08-28T04:04:35.627Z,482.0000
2022-08-28T04:05:35.757Z,482.0000
2022-08-28T04:06:38.056Z,484.0000
2022-08-28T04:07:40.353Z,485.0000
2022-08-28T04:08:46.499Z,489.0000
2022-08-28T04:09:47.094Z,478.0000
2022-08-28T04:10:49.294Z,478.0000
2022-08-28T04:11:51.538Z,475.0000
2022-08-28T04:12:53.808Z,472.0000
2022-08-28T04:13:56.112Z,476.0000
2022-08-28T04:14:58.348Z,475.0000
2022-08-28T04:16:00.618Z,476.0000
2022-08-28T04:17:02.983Z,475.0000
2022-08-28T04:18:05.267Z,475.0000
2022-08-28T04:19:05.320Z,478.0000
2022-08-28T04:20:07.565Z,481.0000
2022-08-28T04:21:09.842Z,483.0000
2022-08-28T04:22:12.130Z,482.0000
2022-08-28T04:23:14.413Z,480.0000
2022-08-28T04:24:16.740Z,479.0000
2022-08-28T04:25:18.995Z,481.0000
2022-08-28T04:26:19.146Z,477.0000
2022-08-28T04:27:21.440Z,476.0000
2022-08-28T04:28:23.729Z,475.0000
2022-08-28T04:29:26.116Z,479.0000
2022-08-28T04:30:28.317Z,478.0000
2022-08-28T04:31:32.265Z,476.0000
2022-08-28T04:32:32.881Z,478.0000
2022-08-28T04:33:32.993Z,477.0000
2022-08-28T04:34:35.527Z,476.0000
2022-08-28T04:35:37.544Z,472.0000
2022-08-28T04:36:39.852Z,474.0000
2022-08-28T04:37:42.157Z,476.0000
2022-08-28T04:38:44.471Z,480.0000
2022-08-28T04:39:46.814Z,477.0000
2022-08-28T04:40:46.951Z,482.0000
2022-08-28T04:41:49.258Z,481.0000
2022-08-28T04:42:51.579Z,478.0000
2022-08-28T04:43:53.832Z,476.0000
2022-08-28T04:44:56.145Z,475.0000
2022-08-28T04:45:58.400Z,478.0000
2022-08-28T04:46:58.504Z,478.0000
2022-08-28T04:48:03.250Z,482.0000
2022-08-28T04:49:03.107Z,478.0000
2022-08-28T04:50:05.413Z,477.0000
2022-08-28T04:51:07.662Z,474.0000
2022-08-28T04:52:09.959Z,473.0000
2022-08-28T04:53:12.217Z,474.0000
2022-08-28T04:54:14.477Z,474.0000
2022-08-28T04:55:14.609Z,477.0000
2022-08-28T04:56:16.779Z,472.0000
2022-08-28T04:57:19.005Z,469.0000
2022-08-28T04:58:23.711Z,470.0000
2022-08-28T04:59:23.498Z,471.0000
2022-08-28T05:00:25.805Z,471.0000
2022-08-28T05:01:28.085Z,471.0000
2022-08-28T05:02:30.438Z,471.0000
2022-08-28T05:03:30.468Z,470.0000
2022-08-28T05:04:32.735Z,474.0000
2022-08-28T05:05:35.023Z,473.0000
2022-08-28T05:06:37.301Z,476.0000
2022-08-28T05:07:39.599Z,478.0000
2022-08-28T05:08:41.904Z,476.0000
2022-08-28T05:09:44.225Z,472.0000
2022-08-28T05:10:46.574Z,471.0000
2022-08-28T05:11:46.718Z,471.0000
2022-08-28T05:12:49.036Z,474.0000
2022-08-28T05:13:51.303Z,478.0000
2022-08-28T05:14:53.618Z,479.0000
2022-08-28T05:15:56.008Z,481.0000
2022-08-28T05:16:58.143Z,481.0000
2022-08-28T05:17:58.242Z,485.0000
2022-08-28T05:19:00.509Z,484.0000
2022-08-28T05:20:02.767Z,482.0000
2022-08-28T05:21:05.071Z,485.0000
2022-08-28T05:22:07.288Z,484.0000
2022-08-28T05:23:09.550Z,484.0000
2022-08-28T05:24:11.812Z,484.0000
2022-08-28T05:25:14.063Z,486.0000
2022-08-28T05:26:16.360Z,488.0000
2022-08-28T05:27:16.443Z,488.0000
2022-08-28T05:28:18.698Z,490.0000
2022-08-28T05:29:20.957Z,491.0000
2022-08-28T05:30:23.214Z,495.0000
2022-08-28T05:31:25.552Z,495.0000
2022-08-28T05:32:27.729Z,492.0000
2022-08-28T05:33:29.984Z,493.0000
2022-08-28T05:34:32.234Z,494.0000
2022-08-28T05:35:34.497Z,493.0000
2022-08-28T05:36:34.636Z,492.0000
2022-08-28T05:37:36.867Z,492.0000
2022-08-28T05:38:39.123Z,494.0000
2022-08-28T05:39:41.376Z,499.0000
2022-08-28T05:40:43.571Z,502.0000
2022-08-28T05:41:45.875Z,504.0000
2022-08-28T05:42:48.065Z,506.0000
2022-08-28T05:43:50.297Z,515.0000
2022-08-28T05:44:54.635Z,519.0000
2022-08-28T05:45:54.888Z,521.0000
2022-08-28T05:46:55.019Z,517.0000
2022-08-28T05:47:57.256Z,510.0000
2022-08-28T05:50:23.326Z,506.0000
2022-08-28T05:51:25.455Z,500.0000
2022-08-28T05:52:27.695Z,498.0000
2022-08-28T05:53:29.862Z,495.0000
2022-08-28T05:54:32.054Z,495.0000
2022-08-28T05:55:34.237Z,496.0000
2022-08-28T05:56:36.431Z,497.0000
2022-08-28T05:57:38.655Z,492.0000
2022-08-28T05:58:40.830Z,489.0000
2022-08-28T05:59:43.034Z,481.0000
2022-08-28T06:00:45.255Z,486.0000
2022-08-28T06:01:47.576Z,487.0000
2022-08-28T06:02:47.576Z,488.0000
2022-08-28T06:03:49.808Z,485.0000
2022-08-28T06:04:51.984Z,490.0000
2022-08-28T06:05:54.208Z,490.0000
2022-08-28T06:06:56.412Z,489.0000
2022-08-28T06:07:58.663Z,490.0000
2022-08-28T06:09:00.861Z,491.0000
2022-08-28T06:10:03.060Z,491.0000
2022-08-28T06:11:05.292Z,493.0000
2022-08-28T06:12:07.504Z,494.0000
2022-08-28T06:13:09.739Z,487.0000
2022-08-28T06:14:11.933Z,487.0000
2022-08-28T06:15:14.139Z,498.0000
2022-08-28T06:16:16.398Z,494.0000
2022-08-28T06:17:16.436Z,488.0000
2022-08-28T06:18:18.652Z,489.0000
2022-08-28T06:19:20.856Z,484.0000
2022-08-28T06:20:23.072Z,493.0000
2022-08-28T06:21:25.292Z,498.0000
2022-08-28T06:22:27.511Z,502.0000
2022-08-28T06:23:29.735Z,501.0000
2022-08-28T06:24:31.936Z,499.0000
2022-08-28T06:25:34.136Z,499.0000
2022-08-28T06:26:36.333Z,497.0000
2022-08-28T06:27:38.563Z,498.0000
2022-08-28T06:28:40.805Z,497.0000
2022-08-28T06:29:42.988Z,495.0000
2022-08-28T06:31:08.914Z,489.0000
2022-08-28T06:31:45.318Z,492.0000
2022-08-28T06:32:47.463Z,489.0000
2022-08-28T06:33:49.678Z,489.0000
2022-08-28T06:34:51.858Z,491.0000
2022-08-28T06:35:54.065Z,490.0000
2022-08-28T06:36:56.270Z,489.0000
2022-08-28T06:37:58.448Z,483.0000
2022-08-28T06:39:00.667Z,478.0000
2022-08-28T06:40:02.871Z,475.0000
2022-08-28T06:41:04.951Z,482.0000
2022-08-28T06:42:07.129Z,484.0000
2022-08-28T06:43:09.344Z,485.0000
2022-08-28T06:44:11.593Z,486.0000
2022-08-28T06:45:13.808Z,489.0000
2022-08-28T06:46:16.098Z,490.0000
2022-08-28T06:47:18.280Z,494.0000
2022-08-28T06:48:20.513Z,492.0000
2022-08-28T06:49:20.617Z,489.0000
2022-08-28T06:50:22.819Z,491.0000
2022-08-28T06:51:25.276Z,490.0000
2022-08-28T06:52:27.309Z,490.0000
2022-08-28T06:53:29.582Z,491.0000
2022-08-28T06:54:31.825Z,491.0000
2022-08-28T06:55:34.028Z,491.0000
2022-08-28T06:56:36.258Z,491.0000
2022-08-28T06:57:38.498Z,494.0000
2022-08-28T06:58:40.720Z,498.0000
2022-08-28T06:59:40.815Z,497.0000
2022-08-28T07:00:43.016Z,496.0000
2022-08-28T07:01:45.342Z,499.0000
2022-08-28T07:02:47.437Z,498.0000
2022-08-28T07:03:49.601Z,496.0000
2022-08-28T07:04:51.850Z,500.0000
2022-08-28T07:05:54.012Z,496.0000
2022-08-28T07:06:58.343Z,503.0000
2022-08-28T07:07:34.827Z,504.0000
2022-08-28T07:08:37.040Z,501.0000
2022-08-28T07:09:39.251Z,500.0000
2022-08-28T07:10:41.761Z,498.0000
2022-08-28T07:11:41.608Z,494.0000
2022-08-28T07:12:43.851Z,491.0000
2022-08-28T07:13:46.105Z,489.0000
2022-08-28T07:14:48.351Z,485.0000
2022-08-28T07:15:50.689Z,481.0000
2022-08-28T07:16:52.799Z,481.0000
2022-08-28T07:17:55.028Z,481.0000
2022-08-28T07:18:57.277Z,485.0000
2022-08-28T07:19:59.466Z,488.0000
2022-08-28T07:21:01.853Z,491.0000
2022-08-28T07:22:03.912Z,495.0000
2022-08-28T07:23:06.140Z,491.0000
2022-08-28T07:24:06.185Z,488.0000
2022-08-28T07:25:08.357Z,486.0000
2022-08-28T07:26:10.534Z,480.0000
2022-08-28T07:27:15.796Z,479.0000
2022-08-28T07:28:15.097Z,479.0000
2022-08-28T07:29:17.091Z,477.0000
2022-08-28T07:30:19.240Z,476.0000
2022-08-28T07:31:21.534Z,478.0000
2022-08-28T07:32:23.604Z,479.0000
2022-08-28T07:33:25.791Z,479.0000
2022-08-28T07:34:27.949Z,480.0000
2022-08-28T07:35:30.100Z,479.0000
2022-08-28T07:36:32.305Z,479.0000
2022-08-28T07:37:34.487Z,478.0000
2022-08-28T07:38:36.717Z,477.0000
2022-08-28T07:39:38.921Z,481.0000
2022-08-28T07:40:41.159Z,477.0000
2022-08-28T07:41:43.359Z,475.0000
2022-08-28T07:42:45.517Z,476.0000
2022-08-28T07:43:47.733Z,476.0000
2022-08-28T07:44:49.944Z,475.0000
2022-08-28T07:45:50.057Z,476.0000
2022-08-28T07:46:52.204Z,471.0000
2022-08-28T07:47:54.391Z,471.0000
2022-08-28T07:48:56.616Z,471.0000
2022-08-28T07:49:58.818Z,473.0000
2022-08-28T07:51:01.049Z,471.0000
2022-08-28T07:52:03.319Z,473.0000
2022-08-28T07:53:05.462Z,477.0000
2022-08-28T07:54:10.161Z,487.0000
2022-08-28T07:55:09.842Z,491.0000
2022-08-28T07:56:12.058Z,491.0000
2022-08-28T07:57:14.277Z,491.0000
2022-08-28T07:58:16.471Z,491.0000
2022-08-28T07:59:19.396Z,487.0000
2022-08-28T08:00:20.929Z,487.0000
2022-08-28T08:01:23.252Z,484.0000
2022-08-28T08:02:23.290Z,485.0000
2022-08-28T08:03:25.649Z,490.0000
2022-08-28T08:04:27.705Z,495.0000
2022-08-28T08:05:29.958Z,498.0000
2022-08-28T08:06:34.040Z,503.0000
2022-08-28T08:07:34.501Z,502.0000
2022-08-28T08:08:36.753Z,501.0000
2022-08-28T08:09:39.038Z,500.0000
2022-08-28T08:10:39.127Z,498.0000
2022-08-28T08:11:41.338Z,496.0000
2022-08-28T08:12:43.621Z,492.0000
2022-08-28T08:13:45.849Z,492.0000
2022-08-28T08:14:48.098Z,489.0000
2022-08-28T08:15:50.383Z,488.0000
2022-08-28T08:16:52.565Z,486.0000
2022-08-28T08:17:54.838Z,482.0000
2022-08-28T08:18:57.092Z,482.0000
2022-08-28T08:19:59.349Z,481.0000
2022-08-28T08:21:01.626Z,479.0000
2022-08-28T08:22:01.771Z,482.0000
2022-08-28T08:23:04.125Z,486.0000
2022-08-28T08:24:06.352Z,486.0000
2022-08-28T08:25:08.639Z,484.0000
2022-08-28T08:26:10.904Z,485.0000
2022-08-28T08:27:13.163Z,486.0000
2022-08-28T08:28:15.458Z,483.0000
2022-08-28T08:29:15.550Z,480.0000
2022-08-28T08:30:17.791Z,479.0000
2022-08-28T08:31:20.083Z,479.0000
2022-08-28T08:32:22.202Z,481.0000
2022-08-28T08:33:24.420Z,482.0000
2022-08-28T08:34:26.641Z,484.0000
2022-08-28T08:35:28.918Z,481.0000
2022-08-28T08:36:31.200Z,485.0000
2022-08-28T08:37:33.434Z,481.0000
2022-08-28T08:38:35.683Z,475.0000
2022-08-28T08:39:37.895Z,468.0000
2022-08-28T08:40:38.125Z,472.0000
2022-08-28T08:41:40.296Z,475.0000
2022-08-28T08:42:42.527Z,480.0000
2022-08-28T08:43:44.806Z,464.0000
2022-08-28T08:44:47.050Z,457.0000
2022-08-28T08:45:49.353Z,469.0000
2022-08-28T08:46:51.602Z,467.0000
2022-08-28T08:47:53.893Z,461.0000
2022-08-28T08:48:54.061Z,465.0000
2022-08-28T08:49:56.327Z,464.0000
2022-08-28T08:50:58.614Z,461.0000
2022-08-28T08:52:00.854Z,454.0000
2022-08-28T08:53:03.067Z,452.0000
2022-08-28T08:54:05.253Z,463.0000
2022-08-28T08:55:07.410Z,469.0000
2022-08-28T08:56:09.591Z,470.0000
2022-08-28T08:57:11.798Z,466.0000
2022-08-28T08:58:14.194Z,461.0000
2022-08-28T08:59:16.263Z,468.0000
2022-08-28T09:00:16.432Z,486.0000
2022-08-28T09:01:18.585Z,469.0000
2022-08-28T09:02:20.793Z,481.0000
2022-08-28T09:03:23.127Z,465.0000
2022-08-28T09:04:25.305Z,479.0000
2022-08-28T09:05:27.591Z,475.0000
2022-08-28T09:06:29.882Z,477.0000
2022-08-28T09:07:32.188Z,481.0000
2022-08-28T09:08:34.480Z,473.0000
2022-08-28T09:09:34.674Z,471.0000
2022-08-28T09:10:36.946Z,476.0000
2022-08-28T09:11:39.241Z,486.0000
2022-08-28T09:12:41.539Z,484.0000
2022-08-28T09:13:43.841Z,478.0000
2022-08-28T09:14:46.211Z,480.0000
2022-08-28T09:15:49.964Z,483.0000
2022-08-28T09:16:48.543Z,484.0000
2022-08-28T09:17:50.821Z,482.0000
2022-08-28T09:18:53.100Z,481.0000
2022-08-28T09:19:55.416Z,472.0000
2022-08-28T09:20:57.643Z,475.0000
2022-08-28T09:21:59.932Z,475.0000
2022-08-28T09:23:02.262Z,477.0000
2022-08-28T09:24:02.244Z,465.0000
2022-08-28T09:25:04.488Z,476.0000
2022-08-28T09:26:06.684Z,476.0000
2022-08-28T09:27:13.705Z,468.0000
2022-08-28T09:28:11.238Z,476.0000
2022-08-28T09:29:13.354Z,480.0000
2022-08-28T09:30:15.630Z,472.0000
2022-08-28T09:31:19.620Z,477.0000
2022-08-28T09:32:20.004Z,467.0000
2022-08-28T09:33:22.227Z,472.0000
2022-08-28T09:34:24.438Z,462.0000
2022-08-28T09:35:26.652Z,462.0000
2022-08-28T09:36:28.839Z,472.0000
2022-08-28T09:37:28.910Z,470.0000
2022-08-28T09:38:31.131Z,468.0000
2022-08-28T09:39:33.355Z,471.0000
2022-08-28T09:40:35.646Z,474.0000
2022-08-28T09:41:37.801Z,472.0000
2022-08-28T09:42:40.031Z,473.0000
2022-08-28T09:43:42.251Z,477.0000
2022-08-28T09:44:44.489Z,478.0000
2022-08-28T09:45:49.001Z,475.0000
2022-08-28T09:46:49.023Z,476.0000
2022-08-28T09:47:49.147Z,475.0000
2022-08-28T09:48:51.409Z,473.0000
2022-08-28T09:49:51.547Z,476.0000
2022-08-28T09:50:53.852Z,472.0000
2022-08-28T09:51:56.068Z,476.0000
2022-08-28T09:52:58.338Z,470.0000
2022-08-28T09:53:58.418Z,471.0000
2022-08-28T09:55:00.649Z,471.0000
2022-08-28T09:56:02.915Z,472.0000
2022-08-28T09:57:05.106Z,468.0000
2022-08-28T09:58:07.354Z,467.0000
2022-08-28T09:59:09.563Z,469.0000
2022-08-28T10:00:11.768Z,469.0000
2022-08-28T10:01:14.054Z,471.0000
2022-08-28T10:02:16.168Z,471.0000
2022-08-28T10:03:18.339Z,471.0000
2022-08-28T10:04:20.653Z,470.0000
2022-08-28T10:05:26.721Z,470.0000
2022-08-28T10:06:24.984Z,474.0000
2022-08-28T10:07:27.150Z,473.0000
2022-08-28T10:08:29.352Z,470.0000
2022-08-28T10:09:31.553Z,466.0000
2022-08-28T10:10:31.599Z,465.0000
2022-08-28T10:11:33.875Z,467.0000
2022-08-28T10:12:36.087Z,467.0000
2022-08-28T10:13:38.251Z,470.0000
2022-08-28T10:14:40.410Z,471.0000
2022-08-28T10:15:43.571Z,470.0000
2022-08-28T10:16:44.790Z,474.0000
2022-08-28T10:17:46.977Z,476.0000
2022-08-28T10:18:49.171Z,477.0000
2022-08-28T10:19:51.371Z,474.0000
2022-08-28T10:20:53.573Z,474.0000
2022-08-28T10:21:55.825Z,478.0000
2022-08-28T10:22:57.971Z,477.0000
2022-08-28T10:24:00.172Z,473.0000
2022-08-28T10:25:02.381Z,471.0000
2022-08-28T10:26:04.583Z,469.0000
2022-08-28T10:27:06.830Z,473.0000
2022-08-28T10:28:06.972Z,471.0000
2022-08-28T10:29:09.056Z,468.0000
2022-08-28T10:30:13.399Z,467.0000
2022-08-28T10:31:13.578Z,466.0000
2022-08-28T10:32:15.763Z,465.0000
2022-08-28T10:33:17.941Z,468.0000
2022-08-28T10:34:20.148Z,468.0000
2022-08-28T10:35:22.358Z,464.0000
2022-08-28T10:36:32.117Z,462.0000
2022-08-28T10:37:26.801Z,465.0000
2022-08-28T10:38:28.973Z,462.0000
2022-08-28T10:39:31.167Z,465.0000
2022-08-28T10:40:33.416Z,466.0000
2022-08-28T10:41:35.533Z,465.0000
2022-08-28T10:42:37.768Z,467.0000
2022-08-28T10:43:39.967Z,469.0000
2022-08-28T10:44:42.200Z,473.0000
2022-08-28T10:45:42.320Z,477.0000
2022-08-28T10:46:44.659Z,480.0000
2022-08-28T10:47:35.632Z,446.0000
2022-08-28T10:48:36.256Z,467.0000
2022-08-28T10:49:38.377Z,464.0000
2022-08-28T10:50:40.601Z,464.0000
2022-08-28T10:51:44.429Z,463.0000
2022-08-28T10:52:44.982Z,461.0000
2022-08-28T10:53:47.221Z,464.0000
2022-08-28T10:54:49.418Z,467.0000
2022-08-28T10:55:51.644Z,467.0000
2022-08-28T10:56:56.315Z,470.0000
2022-08-28T10:57:56.082Z,472.0000
2022-08-28T10:58:58.312Z,469.0000
2022-08-28T11:00:00.465Z,467.0000
2022-08-28T11:01:02.714Z,470.0000
2022-08-28T11:02:04.839Z,473.0000
2022-08-28T11:03:17.808Z,474.0000
2022-08-28T11:04:07.115Z,473.0000
2022-08-28T11:05:09.320Z,469.0000
2022-08-28T11:06:11.786Z,465.0000
2022-08-28T11:07:13.795Z,466.0000
2022-08-28T11:08:16.023Z,463.0000
2022-08-28T11:09:18.284Z,459.0000
2022-08-28T11:10:20.415Z,461.0000
2022-08-28T11:11:22.585Z,457.0000
2022-08-28T11:12:24.729Z,457.0000
2022-08-28T11:13:26.888Z,453.0000
2022-08-28T11:14:29.115Z,450.0000
2022-08-28T11:15:36.724Z,450.0000
2022-08-28T11:16:31.373Z,449.0000
2022-08-28T11:17:33.508Z,447.0000
2022-08-28T11:18:35.709Z,447.0000
2022-08-28T11:19:43.407Z,447.0000
2022-08-28T11:20:40.119Z,449.0000
2022-08-28T11:21:42.362Z,450.0000
2022-08-28T11:22:44.567Z,446.0000
2022-08-28T11:23:46.811Z,446.0000
2022-08-28T11:24:49.085Z,442.0000
2022-08-28T11:25:51.298Z,442.0000
2022-08-28T11:26:51.404Z,442.0000
2022-08-28T11:27:53.650Z,443.0000
2022-08-28T11:28:55.877Z,442.0000
2022-08-28T11:29:58.164Z,438.0000
2022-08-28T11:31:00.557Z,434.0000
2022-08-28T11:32:02.632Z,435.0000
2022-08-28T11:33:04.872Z,435.0000
2022-08-28T11:34:07.122Z,435.0000
2022-08-28T11:35:09.409Z,439.0000
2022-08-28T11:36:11.645Z,439.0000
2022-08-28T11:37:11.760Z,438.0000
2022-08-28T11:38:17.395Z,438.0000
2022-08-28T11:39:16.264Z,442.0000
2022-08-28T11:39:52.542Z,447.0000
2022-08-28T11:40:55.216Z,445.0000
2022-08-28T11:41:55.230Z,447.0000
2022-08-28T11:42:57.456Z,445.0000
2022-08-28T11:43:59.678Z,448.0000
2022-08-28T11:45:01.930Z,449.0000
2022-08-28T11:46:04.264Z,452.0000
2022-08-28T11:47:06.461Z,452.0000
2022-08-28T11:48:08.722Z,453.0000
2022-08-28T11:49:10.929Z,453.0000
2022-08-28T11:50:13.153Z,456.0000
2022-08-28T11:51:15.382Z,461.0000
2022-08-28T11:52:17.548Z,465.0000
2022-08-28T11:53:19.744Z,464.0000
2022-08-28T11:54:19.775Z,464.0000
2022-08-28T11:55:24.070Z,464.0000
2022-08-28T11:55:58.392Z,462.0000
2022-08-28T11:57:00.599Z,459.0000
2022-08-28T11:59:07.911Z,458.0000
2022-08-28T11:59:07.911Z,458.0000
2022-08-28T12:00:07.260Z,457.0000
2022-08-28T12:01:09.492Z,457.0000
2022-08-28T12:02:11.768Z,458.0000
2022-08-28T12:03:14.240Z,457.0000
2022-08-28T12:03:59.182Z,458.0000
2022-08-28T12:04:59.082Z,458.0000
2022-08-28T12:06:01.268Z,458.0000
2022-08-28T12:07:03.496Z,461.0000
2022-08-28T12:08:05.763Z,458.0000